Map

Track Data

SID SEASON NUMBER BASIN SUBBASIN NAME ISO_TIME NATURE LAT LON WMO_WIND WMO_PRES WMO_AGENCY TRACK_TYPE DIST2LAND LANDFALL IFLAG USA_AGENCY USA_ATCF_ID USA_LAT USA_LON USA_RECORD USA_STATUS USA_WIND USA_PRES USA_SSHS USA_R34_NE USA_R34_SE USA_R34_SW USA_R34_NW USA_R50_NE USA_R50_SE USA_R50_SW USA_R50_NW USA_R64_NE USA_R64_SE USA_R64_SW USA_R64_NW USA_POCI USA_ROCI USA_RMW USA_EYE TOKYO_LAT TOKYO_LON TOKYO_GRADE TOKYO_WIND TOKYO_PRES TOKYO_R50_DIR TOKYO_R50_LONG TOKYO_R50_SHORT TOKYO_R30_DIR TOKYO_R30_LONG TOKYO_R30_SHORT TOKYO_LAND CMA_LAT CMA_LON CMA_CAT CMA_WIND CMA_PRES HKO_LAT HKO_LON HKO_CAT HKO_WIND HKO_PRES NEWDELHI_LAT NEWDELHI_LON NEWDELHI_GRADE NEWDELHI_WIND NEWDELHI_PRES NEWDELHI_CI NEWDELHI_DP NEWDELHI_POCI REUNION_LAT REUNION_LON REUNION_TYPE REUNION_WIND REUNION_PRES REUNION_TNUM REUNION_CI REUNION_RMW REUNION_R34_NE REUNION_R34_SE REUNION_R34_SW REUNION_R34_NW REUNION_R50_NE REUNION_R50_SE REUNION_R50_SW REUNION_R50_NW REUNION_R64_NE REUNION_R64_SE REUNION_R64_SW REUNION_R64_NW BOM_LAT BOM_LON BOM_TYPE BOM_WIND BOM_PRES BOM_TNUM BOM_CI BOM_RMW BOM_R34_NE BOM_R34_SE BOM_R34_SW BOM_R34_NW BOM_R50_NE BOM_R50_SE BOM_R50_SW BOM_R50_NW BOM_R64_NE BOM_R64_SE BOM_R64_SW BOM_R64_NW BOM_ROCI BOM_POCI BOM_EYE BOM_POS_METHOD BOM_PRES_METHOD NADI_LAT NADI_LON NADI_CAT NADI_WIND NADI_PRES WELLINGTON_LAT WELLINGTON_LON WELLINGTON_WIND WELLINGTON_PRES DS824_LAT DS824_LON DS824_STAGE DS824_WIND DS824_PRES TD9636_LAT TD9636_LON TD9636_STAGE TD9636_WIND TD9636_PRES TD9635_LAT TD9635_LON TD9635_WIND TD9635_PRES TD9635_ROCI NEUMANN_LAT NEUMANN_LON NEUMANN_CLASS NEUMANN_WIND NEUMANN_PRES MLC_LAT MLC_LON MLC_CLASS MLC_WIND MLC_PRES USA_GUST BOM_GUST BOM_GUST_PER REUNION_GUST REUNION_GUST_PER USA_SEAHGT USA_SEARAD_NE USA_SEARAD_SE USA_SEARAD_SW USA_SEARAD_NW STORM_SPEED STORM_DIR
1891180N11114 1891 12 WP MM NOT_NAMED 1891-06-28 16:00:00 NR 11.0000 114.300 main 422 422 __________O___ -1 11.0000 114.300 7 12 292
1891180N11114 1891 12 WP MM NOT_NAMED 1891-06-28 18:00:00 NR 11.1438 113.939 main 465 445 __________P___ -1 11.1438 113.939 7 11 292
1891180N11114 1891 12 WP MM NOT_NAMED 1891-06-28 21:00:00 NR 11.3552 113.413 main 445 386 __________P___ -1 11.3552 113.413 7 11 293
1891180N11114 1891 12 WP MM NOT_NAMED 1891-06-29 00:00:00 NR 11.5565 112.930 main 386 341 __________P___ -1 11.5565 112.930 7 10 294
1891180N11114 1891 12 WP MM NOT_NAMED 1891-06-29 03:00:00 NR 11.7423 112.518 main 341 327 __________P___ -1 11.7423 112.518 7 9 295
1891180N11114 1891 12 WP MM NOT_NAMED 1891-06-29 04:00:00 NR 11.8000 112.400 main 327 303 __________O___ -1 11.8000 112.400 3 7 298
1891180N11114 1891 12 WP MM NOT_NAMED 1891-06-29 06:00:00 NR 11.9085 112.198 main 303 277 __________P___ -1 11.9085 112.198 3 6 301
1891180N11114 1891 12 WP MM NOT_NAMED 1891-06-29 09:00:00 NR 12.0588 111.965 main 277 253 __________P___ -1 12.0588 111.965 3 5 307
1891180N11114 1891 12 WP MM NOT_NAMED 1891-06-29 12:00:00 NR 12.2025 111.791 main 253 230 __________P___ -1 12.2025 111.791 3 4 313
1891180N11114 1891 12 WP MM NOT_NAMED 1891-06-29 15:00:00 NR 12.3490 111.646 main 230 229 __________P___ -1 12.3490 111.646 3 4 317
1891180N11114 1891 12 WP MM NOT_NAMED 1891-06-29 16:00:00 NR 12.4000 111.600 main 229 217 __________O___ -1 12.4000 111.600 4 4 315
1891180N11114 1891 12 WP MM NOT_NAMED 1891-06-29 18:00:00 NR 12.4951 111.499 main 217 206 __________P___ -1 12.4951 111.499 4 4 316
1891180N11114 1891 12 WP MM NOT_NAMED 1891-06-29 21:00:00 NR 12.6438 111.360 main 206 184 __________P___ -1 12.6438 111.360 4 4 320
1891180N11114 1891 12 WP MM NOT_NAMED 1891-06-30 00:00:00 NR 12.8136 111.220 main 184 173 __________P___ -1 12.8136 111.220 4 5 322
1891180N11114 1891 12 WP MM NOT_NAMED 1891-06-30 03:00:00 NR 13.0203 111.061 main 173 163 __________P___ -1 13.0203 111.061 4 5 324
1891180N11114 1891 12 WP MM NOT_NAMED 1891-06-30 04:00:00 NR 13.1000 111.000 main 164 155 __________O___ -1 13.1000 111.000 4 6 323
1891180N11114 1891 12 WP MM NOT_NAMED 1891-06-30 06:00:00 NR 13.2719 110.861 main 158 136 __________P___ -1 13.2719 110.861 4 7 322
1891180N11114 1891 12 WP MM NOT_NAMED 1891-06-30 09:00:00 NR 13.5674 110.628 main 141 118 __________P___ -1 13.5674 110.628 4 8 323
1891180N11114 1891 12 WP MM NOT_NAMED 1891-06-30 12:00:00 NR 13.9025 110.371 main 118 92 __________P___ -1 13.9025 110.371 4 9 324
1891180N11114 1891 12 WP MM NOT_NAMED 1891-06-30 15:00:00 NR 14.2709 110.095 main 97 87 __________P___ -1 14.2709 110.095 4 9 324
1891180N11114 1891 12 WP MM NOT_NAMED 1891-06-30 16:00:00 NR 14.4000 110.000 main 92 75 __________O___ -1 14.4000 110.000 4 10 324
1891180N11114 1891 12 WP MM NOT_NAMED 1891-06-30 18:00:00 NR 14.6764 109.786 main 75 54 __________P___ -1 14.6764 109.786 4 11 323
1891180N11114 1891 12 WP MM NOT_NAMED 1891-06-30 21:00:00 NR 15.1165 109.451 main 58 39 __________P___ -1 15.1165 109.451 4 11 324
1891180N11114 1891 12 WP MM NOT_NAMED 1891-07-01 00:00:00 NR 15.5593 109.133 main 46 46 __________P___ -1 15.5593 109.133 4 10 327
1891180N11114 1891 12 WP MM NOT_NAMED 1891-07-01 03:00:00 NR 15.9736 108.869 main 57 48 __________P___ -1 15.9736 108.869 4 9 329
1891180N11114 1891 12 WP MM NOT_NAMED 1891-07-01 04:00:00 NR 16.1000 108.800 main 54 48 __________O___ -1 16.1000 108.800 4 8 335
1891180N11114 1891 12 WP MM NOT_NAMED 1891-07-01 06:00:00 NR 16.3147 108.704 main 54 54 __________P___ -1 16.3147 108.704 4 6 341
1891180N11114 1891 12 WP MM NOT_NAMED 1891-07-01 09:00:00 NR 16.5992 108.623 main 69 69 __________P___ -1 16.5992 108.623 4 6 349
1891180N11114 1891 12 WP MM NOT_NAMED 1891-07-01 12:00:00 NR 16.8578 108.596 main 94 94 __________P___ -1 16.8578 108.596 4 5 0
1891180N11114 1891 12 WP MM NOT_NAMED 1891-07-01 15:00:00 NR 17.1123 108.598 main 113 113 __________P___ -1 17.1123 108.598 4 5 3
1891180N11114 1891 12 WP MM NOT_NAMED 1891-07-01 16:00:00 NR 17.2000 108.600 main 123 119 __________O___ -1 17.2000 108.600 4 6 351
1891180N11114 1891 12 WP MM NOT_NAMED 1891-07-01 18:00:00 NR 17.3916 108.563 main 119 91 __________P___ -1 17.3916 108.563 4 6 351
1891180N11114 1891 12 WP MM NOT_NAMED 1891-07-01 21:00:00 NR 17.6852 108.519 main 91 59 __________P___ -1 17.6852 108.519 4 6 355
1891180N11114 1891 12 WP MM NOT_NAMED 1891-07-02 00:00:00 NR 17.9864 108.511 main 59 24 __________P___ -1 17.9864 108.511 4 6 4
1891180N11114 1891 12 WP MM NOT_NAMED 1891-07-02 03:00:00 NR 18.2953 108.564 main 24 15 __________P___ -1 18.2953 108.564 4 6 12
1891180N11114 1891 12 WP MM NOT_NAMED 1891-07-02 04:00:00 NR 18.4000 108.600 main 15 0 __________O___ -1 18.4000 108.600 4 7 24
1891180N11114 1891 12 WP MM NOT_NAMED 1891-07-02 06:00:00 NR 18.6085 108.709 main 0 0 __________P___ -1 18.6085 108.709 4 7 31
1891180N11114 1891 12 WP MM NOT_NAMED 1891-07-02 09:00:00 NR 18.9273 108.937 main 0 0 __________P___ -1 18.9273 108.937 4 8 36
1891180N11114 1891 12 WP MM NOT_NAMED 1891-07-02 12:00:00 NR 19.2536 109.212 main 0 0 __________P___ -1 19.2536 109.212 4 9 39
1891180N11114 1891 12 WP MM NOT_NAMED 1891-07-02 15:00:00 NR 19.5871 109.504 main 0 0 __________P___ -1 19.5871 109.504 4 9 39
1891180N11114 1891 12 WP MM NOT_NAMED 1891-07-02 16:00:00 NR 19.7000 109.600 main 0 0 __________O___ -1 19.7000 109.600 7 9 37
1891180N11114 1891 12 WP MM NOT_NAMED 1891-07-02 18:00:00 NR 19.9282 109.784 main 0 0 __________P___ -1 19.9282 109.784 7 9 36
1891180N11114 1891 12 WP MM NOT_NAMED 1891-07-02 21:00:00 NR 20.2756 110.042 main 0 0 __________P___ -1 20.2756 110.042 7 8 34
1891180N11114 1891 12 WP MM NOT_NAMED 1891-07-03 00:00:00 NR 20.6275 110.286 main 0 0 __________P___ -1 20.6275 110.286 7 8 33
1891180N11114 1891 12 WP MM NOT_NAMED 1891-07-03 03:00:00 NR 20.9817 110.522 main 22 11 __________P___ -1 20.9817 110.522 7 8 32
1891180N11114 1891 12 WP MM NOT_NAMED 1891-07-03 04:00:00 NR 21.1000 110.600 main 11 __________O___ -1 21.1000 110.600 7 8 30

Digital Typhoon Data and Search

About IBTrACS Database

This database is a web-friendly format of International Best Track Archive for Climate Stewardship (IBTrACS), a global best track data archive curated by NOAA dating back to 1842.

Updated: 2021-10-08